sensor_id;sensor_type;location;lat;lon;timestamp;P1;durP1;ratioP1;P2;durP2;ratioP2
51556;SDS011;38766;53.194;5.532;2023-02-21T00:01:54;27.80;;;7.82;;
51556;SDS011;38766;53.194;5.532;2023-02-21T00:04:39;25.30;;;7.82;;
51556;SDS011;38766;53.194;5.532;2023-02-21T00:07:24;24.08;;;8.57;;
51556;SDS011;38766;53.194;5.532;2023-02-21T00:10:08;24.53;;;8.70;;
51556;SDS011;38766;53.194;5.532;2023-02-21T00:12:55;20.95;;;7.05;;
51556;SDS011;38766;53.194;5.532;2023-02-21T00:15:39;26.10;;;8.43;;
51556;SDS011;38766;53.194;5.532;2023-02-21T00:18:24;20.98;;;6.68;;
51556;SDS011;38766;53.194;5.532;2023-02-21T00:21:08;18.25;;;6.60;;
51556;SDS011;38766;53.194;5.532;2023-02-21T00:23:52;23.20;;;8.23;;
51556;SDS011;38766;53.194;5.532;2023-02-21T00:26:37;22.52;;;7.68;;
51556;SDS011;38766;53.194;5.532;2023-02-21T00:29:21;21.40;;;7.78;;
51556;SDS011;38766;53.194;5.532;2023-02-21T00:32:05;26.95;;;8.23;;
51556;SDS011;38766;53.194;5.532;2023-02-21T00:34:50;22.42;;;9.25;;
51556;SDS011;38766;53.194;5.532;2023-02-21T00:37:34;25.80;;;9.82;;
51556;SDS011;38766;53.194;5.532;2023-02-21T00:40:19;23.97;;;9.47;;
51556;SDS011;38766;53.194;5.532;2023-02-21T00:43:03;25.40;;;8.50;;
51556;SDS011;38766;53.194;5.532;2023-02-21T00:45:47;29.75;;;10.05;;
51556;SDS011;38766;53.194;5.532;2023-02-21T00:48:31;34.97;;;12.05;;
51556;SDS011;38766;53.194;5.532;2023-02-21T00:51:16;32.27;;;10.60;;
51556;SDS011;38766;53.194;5.532;2023-02-21T00:54:00;32.47;;;12.25;;
51556;SDS011;38766;53.194;5.532;2023-02-21T00:56:45;28.00;;;11.18;;
51556;SDS011;38766;53.194;5.532;2023-02-21T00:59:29;25.30;;;10.80;;
51556;SDS011;38766;53.194;5.532;2023-02-21T01:02:13;27.60;;;11.85;;
51556;SDS011;38766;53.194;5.532;2023-02-21T01:04:57;25.87;;;11.63;;
51556;SDS011;38766;53.194;5.532;2023-02-21T01:07:42;31.02;;;11.88;;
51556;SDS011;38766;53.194;5.532;2023-02-21T01:10:26;26.25;;;10.45;;
51556;SDS011;38766;53.194;5.532;2023-02-21T01:13:10;32.20;;;11.95;;
51556;SDS011;38766;53.194;5.532;2023-02-21T01:15:54;33.67;;;12.88;;
51556;SDS011;38766;53.194;5.532;2023-02-21T01:18:39;35.30;;;11.88;;
51556;SDS011;38766;53.194;5.532;2023-02-21T01:21:23;25.00;;;11.50;;
51556;SDS011;38766;53.194;5.532;2023-02-21T01:24:08;32.83;;;11.93;;
51556;SDS011;38766;53.194;5.532;2023-02-21T01:26:54;29.75;;;10.93;;
51556;SDS011;38766;53.194;5.532;2023-02-21T01:29:38;31.92;;;10.73;;
51556;SDS011;38766;53.194;5.532;2023-02-21T01:32:23;24.92;;;11.27;;
51556;SDS011;38766;53.194;5.532;2023-02-21T01:35:07;23.73;;;11.07;;
51556;SDS011;38766;53.194;5.532;2023-02-21T01:37:52;33.10;;;12.02;;
51556;SDS011;38766;53.194;5.532;2023-02-21T01:40:37;36.60;;;13.13;;
51556;SDS011;38766;53.194;5.532;2023-02-21T01:43:24;25.65;;;11.07;;
51556;SDS011;38766;53.194;5.532;2023-02-21T01:46:11;24.17;;;10.45;;
51556;SDS011;38766;53.194;5.532;2023-02-21T01:48:56;26.13;;;11.30;;
51556;SDS011;38766;53.194;5.532;2023-02-21T01:51:42;22.27;;;10.18;;
51556;SDS011;38766;53.194;5.532;2023-02-21T01:54:29;26.58;;;9.93;;
51556;SDS011;38766;53.194;5.532;2023-02-21T01:57:18;25.33;;;10.55;;
51556;SDS011;38766;53.194;5.532;2023-02-21T02:00:04;33.95;;;11.23;;
51556;SDS011;38766;53.194;5.532;2023-02-21T02:02:56;27.85;;;11.73;;
51556;SDS011;38766;53.194;5.532;2023-02-21T02:05:43;22.30;;;9.35;;
51556;SDS011;38766;53.194;5.532;2023-02-21T02:08:32;21.70;;;10.88;;
51556;SDS011;38766;53.194;5.532;2023-02-21T02:36:41;21.38;;;10.30;;
51556;SDS011;38766;53.194;5.532;2023-02-21T02:44:40;24.13;;;11.53;;
51556;SDS011;38766;53.194;5.532;2023-02-21T02:47:18;27.23;;;12.27;;
51556;SDS011;38766;53.194;5.532;2023-02-21T02:49:51;21.65;;;11.02;;
51556;SDS011;38766;53.194;5.532;2023-02-21T02:52:19;26.38;;;13.18;;
51556;SDS011;38766;53.194;5.532;2023-02-21T02:54:55;21.23;;;11.18;;
51556;SDS011;38766;53.194;5.532;2023-02-21T02:57:27;23.85;;;13.30;;
51556;SDS011;38766;53.194;5.532;2023-02-21T03:00:05;24.40;;;12.77;;
51556;SDS011;38766;53.194;5.532;2023-02-21T03:13:23;28.42;;;13.82;;
51556;SDS011;38766;53.194;5.532;2023-02-21T03:18:57;29.38;;;14.57;;
51556;SDS011;38766;53.194;5.532;2023-02-21T03:21:34;30.95;;;15.57;;
51556;SDS011;38766;53.194;5.532;2023-02-21T03:24:04;28.27;;;14.02;;
51556;SDS011;38766;53.194;5.532;2023-02-21T03:26:33;32.22;;;14.57;;
51556;SDS011;38766;53.194;5.532;2023-02-21T03:29:02;33.10;;;16.08;;
51556;SDS011;38766;53.194;5.532;2023-02-21T03:31:29;33.70;;;15.07;;
51556;SDS011;38766;53.194;5.532;2023-02-21T03:34:01;33.67;;;14.95;;
51556;SDS011;38766;53.194;5.532;2023-02-21T03:36:28;29.60;;;14.20;;
51556;SDS011;38766;53.194;5.532;2023-02-21T03:38:54;30.80;;;15.73;;
51556;SDS011;38766;53.194;5.532;2023-02-21T03:41:19;32.38;;;15.43;;
51556;SDS011;38766;53.194;5.532;2023-02-21T03:43:45;29.58;;;15.63;;
51556;SDS011;38766;53.194;5.532;2023-02-21T03:46:11;26.98;;;14.70;;
51556;SDS011;38766;53.194;5.532;2023-02-21T03:48:36;26.08;;;15.00;;
51556;SDS011;38766;53.194;5.532;2023-02-21T03:51:02;25.98;;;14.85;;
51556;SDS011;38766;53.194;5.532;2023-02-21T03:53:28;28.77;;;14.90;;
51556;SDS011;38766;53.194;5.532;2023-02-21T03:55:53;26.65;;;14.65;;
51556;SDS011;38766;53.194;5.532;2023-02-21T03:58:19;24.67;;;14.90;;
51556;SDS011;38766;53.194;5.532;2023-02-21T04:00:45;24.65;;;14.15;;
51556;SDS011;38766;53.194;5.532;2023-02-21T04:03:10;30.05;;;15.32;;
51556;SDS011;38766;53.194;5.532;2023-02-21T04:05:37;26.25;;;14.40;;
51556;SDS011;38766;53.194;5.532;2023-02-21T04:08:02;29.88;;;15.10;;
51556;SDS011;38766;53.194;5.532;2023-02-21T04:10:31;28.80;;;14.98;;
51556;SDS011;38766;53.194;5.532;2023-02-21T04:12:57;37.05;;;15.50;;
51556;SDS011;38766;53.194;5.532;2023-02-21T04:15:22;30.60;;;15.48;;
51556;SDS011;38766;53.194;5.532;2023-02-21T04:17:48;29.90;;;16.20;;
51556;SDS011;38766;53.194;5.532;2023-02-21T04:20:14;28.30;;;14.63;;
51556;SDS011;38766;53.194;5.532;2023-02-21T04:22:39;33.17;;;15.23;;
51556;SDS011;38766;53.194;5.532;2023-02-21T04:25:05;28.75;;;14.20;;
51556;SDS011;38766;53.194;5.532;2023-02-21T04:27:32;40.22;;;15.85;;
51556;SDS011;38766;53.194;5.532;2023-02-21T04:29:58;26.90;;;14.27;;
51556;SDS011;38766;53.194;5.532;2023-02-21T04:32:24;35.10;;;15.98;;
51556;SDS011;38766;53.194;5.532;2023-02-21T04:34:51;28.42;;;15.10;;
51556;SDS011;38766;53.194;5.532;2023-02-21T04:37:16;32.20;;;14.70;;
51556;SDS011;38766;53.194;5.532;2023-02-21T04:39:42;33.70;;;14.95;;
51556;SDS011;38766;53.194;5.532;2023-02-21T04:42:08;29.73;;;15.02;;
51556;SDS011;38766;53.194;5.532;2023-02-21T04:44:33;30.60;;;15.95;;
51556;SDS011;38766;53.194;5.532;2023-02-21T04:46:59;28.00;;;16.58;;
51556;SDS011;38766;53.194;5.532;2023-02-21T04:49:25;39.10;;;16.92;;
51556;SDS011;38766;53.194;5.532;2023-02-21T04:51:51;29.48;;;15.55;;
51556;SDS011;38766;53.194;5.532;2023-02-21T04:54:18;36.08;;;16.30;;
51556;SDS011;38766;53.194;5.532;2023-02-21T04:56:43;29.27;;;15.40;;
51556;SDS011;38766;53.194;5.532;2023-02-21T04:59:09;33.50;;;16.20;;
51556;SDS011;38766;53.194;5.532;2023-02-21T05:01:35;29.38;;;16.02;;
51556;SDS011;38766;53.194;5.532;2023-02-21T05:04:03;28.58;;;16.38;;
51556;SDS011;38766;53.194;5.532;2023-02-21T05:06:30;29.95;;;15.80;;
51556;SDS011;38766;53.194;5.532;2023-02-21T05:08:56;32.47;;;17.20;;
51556;SDS011;38766;53.194;5.532;2023-02-21T05:11:23;29.42;;;15.00;;
51556;SDS011;38766;53.194;5.532;2023-02-21T05:13:49;35.80;;;15.95;;
51556;SDS011;38766;53.194;5.532;2023-02-21T05:16:18;34.33;;;16.83;;
51556;SDS011;38766;53.194;5.532;2023-02-21T05:18:45;28.30;;;16.02;;
51556;SDS011;38766;53.194;5.532;2023-02-21T05:21:12;30.77;;;15.70;;
51556;SDS011;38766;53.194;5.532;2023-02-21T05:23:38;34.00;;;16.38;;
51556;SDS011;38766;53.194;5.532;2023-02-21T05:26:09;29.42;;;15.13;;
51556;SDS011;38766;53.194;5.532;2023-02-21T05:28:37;30.90;;;15.68;;
51556;SDS011;38766;53.194;5.532;2023-02-21T05:31:04;32.95;;;16.40;;
51556;SDS011;38766;53.194;5.532;2023-02-21T05:33:30;30.65;;;16.17;;
51556;SDS011;38766;53.194;5.532;2023-02-21T05:35:56;35.25;;;17.85;;
51556;SDS011;38766;53.194;5.532;2023-02-21T05:38:23;35.22;;;15.45;;
51556;SDS011;38766;53.194;5.532;2023-02-21T05:40:49;32.97;;;17.83;;
51556;SDS011;38766;53.194;5.532;2023-02-21T05:43:21;29.42;;;16.95;;
51556;SDS011;38766;53.194;5.532;2023-02-21T05:45:47;31.15;;;15.93;;
51556;SDS011;38766;53.194;5.532;2023-02-21T05:48:13;38.13;;;18.92;;
51556;SDS011;38766;53.194;5.532;2023-02-21T05:50:39;33.78;;;16.42;;
51556;SDS011;38766;53.194;5.532;2023-02-21T05:53:04;31.35;;;16.58;;
51556;SDS011;38766;53.194;5.532;2023-02-21T05:55:31;34.00;;;17.08;;
51556;SDS011;38766;53.194;5.532;2023-02-21T05:57:56;32.35;;;16.95;;
51556;SDS011;38766;53.194;5.532;2023-02-21T06:00:25;31.42;;;17.50;;
51556;SDS011;38766;53.194;5.532;2023-02-21T06:02:53;32.03;;;16.92;;
51556;SDS011;38766;53.194;5.532;2023-02-21T06:05:20;32.65;;;16.95;;
51556;SDS011;38766;53.194;5.532;2023-02-21T06:07:46;32.78;;;17.27;;
51556;SDS011;38766;53.194;5.532;2023-02-21T06:10:13;32.88;;;16.55;;
51556;SDS011;38766;53.194;5.532;2023-02-21T06:12:40;33.38;;;16.98;;
51556;SDS011;38766;53.194;5.532;2023-02-21T06:15:05;33.72;;;16.42;;
51556;SDS011;38766;53.194;5.532;2023-02-21T06:17:32;39.53;;;16.90;;
51556;SDS011;38766;53.194;5.532;2023-02-21T06:19:59;40.50;;;17.33;;
51556;SDS011;38766;53.194;5.532;2023-02-21T06:22:25;34.33;;;17.00;;
51556;SDS011;38766;53.194;5.532;2023-02-21T06:24:51;31.70;;;16.20;;
51556;SDS011;38766;53.194;5.532;2023-02-21T06:27:16;31.23;;;16.95;;
51556;SDS011;38766;53.194;5.532;2023-02-21T06:29:42;29.20;;;16.25;;
51556;SDS011;38766;53.194;5.532;2023-02-21T06:32:07;30.80;;;16.40;;
51556;SDS011;38766;53.194;5.532;2023-02-21T06:34:33;32.75;;;16.70;;
51556;SDS011;38766;53.194;5.532;2023-02-21T06:36:58;31.52;;;15.98;;
51556;SDS011;38766;53.194;5.532;2023-02-21T06:39:24;36.30;;;16.75;;
51556;SDS011;38766;53.194;5.532;2023-02-21T06:41:52;30.95;;;16.17;;
51556;SDS011;38766;53.194;5.532;2023-02-21T06:44:18;31.60;;;16.30;;
51556;SDS011;38766;53.194;5.532;2023-02-21T06:46:44;36.78;;;17.88;;
51556;SDS011;38766;53.194;5.532;2023-02-21T06:49:10;31.95;;;17.50;;
51556;SDS011;38766;53.194;5.532;2023-02-21T06:51:38;36.72;;;18.23;;
51556;SDS011;38766;53.194;5.532;2023-02-21T06:54:05;33.55;;;17.35;;
51556;SDS011;38766;53.194;5.532;2023-02-21T06:56:55;40.10;;;17.55;;
51556;SDS011;38766;53.194;5.532;2023-02-21T06:59:21;35.83;;;17.55;;
51556;SDS011;38766;53.194;5.532;2023-02-21T07:01:46;40.13;;;18.40;;
51556;SDS011;38766;53.194;5.532;2023-02-21T07:04:12;34.05;;;18.23;;
51556;SDS011;38766;53.194;5.532;2023-02-21T07:06:41;26.83;;;17.50;;
51556;SDS011;38766;53.194;5.532;2023-02-21T07:09:07;35.92;;;18.85;;
51556;SDS011;38766;53.194;5.532;2023-02-21T07:11:34;36.28;;;18.90;;
51556;SDS011;38766;53.194;5.532;2023-02-21T07:14:00;37.13;;;18.15;;
51556;SDS011;38766;53.194;5.532;2023-02-21T07:16:26;34.92;;;18.65;;
51556;SDS011;38766;53.194;5.532;2023-02-21T07:18:52;34.85;;;17.88;;
51556;SDS011;38766;53.194;5.532;2023-02-21T07:21:20;33.20;;;18.67;;
51556;SDS011;38766;53.194;5.532;2023-02-21T07:23:55;36.63;;;18.40;;
51556;SDS011;38766;53.194;5.532;2023-02-21T07:26:21;33.30;;;17.92;;
51556;SDS011;38766;53.194;5.532;2023-02-21T07:28:47;34.13;;;17.63;;
51556;SDS011;38766;53.194;5.532;2023-02-21T07:31:13;33.25;;;18.27;;
51556;SDS011;38766;53.194;5.532;2023-02-21T07:33:39;39.85;;;19.02;;
51556;SDS011;38766;53.194;5.532;2023-02-21T07:36:04;39.90;;;19.05;;
51556;SDS011;38766;53.194;5.532;2023-02-21T07:38:33;37.70;;;18.55;;
51556;SDS011;38766;53.194;5.532;2023-02-21T07:41:00;38.03;;;20.23;;
51556;SDS011;38766;53.194;5.532;2023-02-21T07:43:27;41.25;;;23.40;;
51556;SDS011;38766;53.194;5.532;2023-02-21T07:45:54;41.33;;;20.40;;
51556;SDS011;38766;53.194;5.532;2023-02-21T07:48:20;37.53;;;20.77;;
51556;SDS011;38766;53.194;5.532;2023-02-21T07:50:47;39.20;;;21.25;;
51556;SDS011;38766;53.194;5.532;2023-02-21T07:53:13;36.97;;;19.98;;
51556;SDS011;38766;53.194;5.532;2023-02-21T07:55:39;38.00;;;21.40;;
51556;SDS011;38766;53.194;5.532;2023-02-21T07:58:05;40.35;;;23.05;;
51556;SDS011;38766;53.194;5.532;2023-02-21T08:00:31;37.95;;;18.88;;
51556;SDS011;38766;53.194;5.532;2023-02-21T08:02:57;33.33;;;19.08;;
51556;SDS011;38766;53.194;5.532;2023-02-21T08:05:23;32.90;;;18.52;;
51556;SDS011;38766;53.194;5.532;2023-02-21T08:07:49;35.22;;;19.55;;
51556;SDS011;38766;53.194;5.532;2023-02-21T08:10:22;33.60;;;18.42;;
51556;SDS011;38766;53.194;5.532;2023-02-21T08:12:49;35.00;;;18.87;;
51556;SDS011;38766;53.194;5.532;2023-02-21T08:15:18;30.38;;;18.13;;
51556;SDS011;38766;53.194;5.532;2023-02-21T08:17:46;35.60;;;18.48;;
51556;SDS011;38766;53.194;5.532;2023-02-21T08:20:13;37.33;;;19.50;;
51556;SDS011;38766;53.194;5.532;2023-02-21T08:22:39;32.35;;;18.73;;
51556;SDS011;38766;53.194;5.532;2023-02-21T08:25:04;31.40;;;17.90;;
51556;SDS011;38766;53.194;5.532;2023-02-21T08:27:30;33.13;;;17.30;;
51556;SDS011;38766;53.194;5.532;2023-02-21T08:29:56;32.67;;;17.23;;
51556;SDS011;38766;53.194;5.532;2023-02-21T08:32:22;29.95;;;16.83;;
51556;SDS011;38766;53.194;5.532;2023-02-21T08:34:47;30.35;;;17.98;;
51556;SDS011;38766;53.194;5.532;2023-02-21T08:37:13;33.13;;;17.38;;
51556;SDS011;38766;53.194;5.532;2023-02-21T08:39:51;26.20;;;16.05;;
51556;SDS011;38766;53.194;5.532;2023-02-21T08:42:17;30.08;;;17.67;;
51556;SDS011;38766;53.194;5.532;2023-02-21T08:44:44;32.40;;;16.70;;
51556;SDS011;38766;53.194;5.532;2023-02-21T08:47:10;28.17;;;16.90;;
51556;SDS011;38766;53.194;5.532;2023-02-21T08:49:37;28.42;;;16.63;;
51556;SDS011;38766;53.194;5.532;2023-02-21T08:52:05;30.02;;;17.40;;
51556;SDS011;38766;53.194;5.532;2023-02-21T08:54:33;29.42;;;16.90;;
51556;SDS011;38766;53.194;5.532;2023-02-21T08:57:05;30.08;;;16.80;;
51556;SDS011;38766;53.194;5.532;2023-02-21T08:59:31;31.92;;;15.75;;
51556;SDS011;38766;53.194;5.532;2023-02-21T09:01:58;30.98;;;16.85;;
51556;SDS011;38766;53.194;5.532;2023-02-21T09:04:24;31.15;;;16.80;;
51556;SDS011;38766;53.194;5.532;2023-02-21T09:06:54;27.88;;;16.25;;
51556;SDS011;38766;53.194;5.532;2023-02-21T09:09:20;30.23;;;17.63;;
51556;SDS011;38766;53.194;5.532;2023-02-21T09:11:46;30.17;;;16.27;;
51556;SDS011;38766;53.194;5.532;2023-02-21T09:14:13;24.98;;;15.60;;
51556;SDS011;38766;53.194;5.532;2023-02-21T09:16:39;26.98;;;15.93;;
51556;SDS011;38766;53.194;5.532;2023-02-21T09:19:06;27.92;;;15.65;;
51556;SDS011;38766;53.194;5.532;2023-02-21T09:21:32;26.13;;;15.23;;
51556;SDS011;38766;53.194;5.532;2023-02-21T09:23:58;24.92;;;14.68;;
51556;SDS011;38766;53.194;5.532;2023-02-21T09:26:26;26.52;;;16.08;;
51556;SDS011;38766;53.194;5.532;2023-02-21T09:28:55;33.65;;;16.77;;
51556;SDS011;38766;53.194;5.532;2023-02-21T09:31:21;29.60;;;15.68;;
51556;SDS011;38766;53.194;5.532;2023-02-21T09:33:47;28.40;;;16.88;;
51556;SDS011;38766;53.194;5.532;2023-02-21T09:36:13;29.38;;;15.55;;
51556;SDS011;38766;53.194;5.532;2023-02-21T09:38:38;25.85;;;14.75;;
51556;SDS011;38766;53.194;5.532;2023-02-21T09:41:06;25.35;;;15.18;;
51556;SDS011;38766;53.194;5.532;2023-02-21T09:43:37;23.45;;;14.70;;
51556;SDS011;38766;53.194;5.532;2023-02-21T09:46:20;23.77;;;14.73;;
51556;SDS011;38766;53.194;5.532;2023-02-21T09:48:49;23.83;;;14.48;;
51556;SDS011;38766;53.194;5.532;2023-02-21T09:51:16;27.75;;;15.65;;
51556;SDS011;38766;53.194;5.532;2023-02-21T09:53:43;28.52;;;15.40;;
51556;SDS011;38766;53.194;5.532;2023-02-21T09:56:24;24.45;;;16.27;;
51556;SDS011;38766;53.194;5.532;2023-02-21T09:58:55;26.13;;;15.50;;
51556;SDS011;38766;53.194;5.532;2023-02-21T10:04:41;23.23;;;14.70;;
51556;SDS011;38766;53.194;5.532;2023-02-21T10:15:47;28.40;;;15.50;;
51556;SDS011;38766;53.194;5.532;2023-02-21T10:18:34;31.20;;;15.65;;
51556;SDS011;38766;53.194;5.532;2023-02-21T10:21:23;25.55;;;14.80;;
51556;SDS011;38766;53.194;5.532;2023-02-21T10:23:54;22.92;;;14.18;;
51556;SDS011;38766;53.194;5.532;2023-02-21T10:26:29;26.42;;;14.32;;
51556;SDS011;38766;53.194;5.532;2023-02-21T10:28:59;24.58;;;14.80;;
51556;SDS011;38766;53.194;5.532;2023-02-21T10:31:36;21.25;;;13.60;;
51556;SDS011;38766;53.194;5.532;2023-02-21T10:34:05;21.90;;;13.13;;
51556;SDS011;38766;53.194;5.532;2023-02-21T10:36:40;22.13;;;13.43;;
51556;SDS011;38766;53.194;5.532;2023-02-21T10:39:09;20.85;;;14.68;;
51556;SDS011;38766;53.194;5.532;2023-02-21T10:41:43;24.88;;;14.23;;
51556;SDS011;38766;53.194;5.532;2023-02-21T10:44:09;22.27;;;13.40;;
51556;SDS011;38766;53.194;5.532;2023-02-21T10:46:39;24.20;;;14.27;;
51556;SDS011;38766;53.194;5.532;2023-02-21T10:52:18;21.98;;;13.43;;
51556;SDS011;38766;53.194;5.532;2023-02-21T10:57:24;21.90;;;13.57;;
51556;SDS011;38766;53.194;5.532;2023-02-21T10:59:51;23.20;;;13.90;;
51556;SDS011;38766;53.194;5.532;2023-02-21T11:05:07;21.38;;;14.02;;
51556;SDS011;38766;53.194;5.532;2023-02-21T11:07:33;23.80;;;14.15;;
51556;SDS011;38766;53.194;5.532;2023-02-21T11:09:59;18.67;;;12.40;;
51556;SDS011;38766;53.194;5.532;2023-02-21T11:12:26;22.77;;;13.82;;
51556;SDS011;38766;53.194;5.532;2023-02-21T11:19:56;24.90;;;13.55;;
51556;SDS011;38766;53.194;5.532;2023-02-21T11:22:36;20.33;;;12.93;;
51556;SDS011;38766;53.194;5.532;2023-02-21T11:28:03;22.95;;;13.15;;
51556;SDS011;38766;53.194;5.532;2023-02-21T11:30:43;21.55;;;13.85;;
51556;SDS011;38766;53.194;5.532;2023-02-21T11:33:26;21.17;;;12.73;;
51556;SDS011;38766;53.194;5.532;2023-02-21T11:35:53;20.75;;;13.50;;
51556;SDS011;38766;53.194;5.532;2023-02-21T11:38:57;22.38;;;13.40;;
51556;SDS011;38766;53.194;5.532;2023-02-21T11:41:27;18.38;;;13.38;;
51556;SDS011;38766;53.194;5.532;2023-02-21T11:43:56;20.35;;;13.70;;
51556;SDS011;38766;53.194;5.532;2023-02-21T11:46:36;22.55;;;13.65;;
51556;SDS011;38766;53.194;5.532;2023-02-21T11:56:53;22.65;;;13.73;;
51556;SDS011;38766;53.194;5.532;2023-02-21T12:05:44;18.52;;;13.63;;
51556;SDS011;38766;53.194;5.532;2023-02-21T12:22:02;21.35;;;13.05;;
51556;SDS011;38766;53.194;5.532;2023-02-21T12:33:08;19.80;;;13.00;;
51556;SDS011;38766;53.194;5.532;2023-02-21T12:52:02;21.85;;;13.52;;
51556;SDS011;38766;53.194;5.532;2023-02-21T12:57:17;19.27;;;11.60;;
51556;SDS011;38766;53.194;5.532;2023-02-21T13:08:06;20.23;;;13.30;;
51556;SDS011;38766;53.194;5.532;2023-02-21T13:10:48;21.50;;;12.95;;
51556;SDS011;38766;53.194;5.532;2023-02-21T13:15:42;19.08;;;11.82;;
51556;SDS011;38766;53.194;5.532;2023-02-21T13:18:17;16.17;;;12.00;;
51556;SDS011;38766;53.194;5.532;2023-02-21T13:23:29;17.63;;;11.10;;
51556;SDS011;38766;53.194;5.532;2023-02-21T13:29:10;14.85;;;11.07;;
51556;SDS011;38766;53.194;5.532;2023-02-21T13:31:48;16.15;;;11.27;;
51556;SDS011;38766;53.194;5.532;2023-02-21T13:34:36;18.95;;;11.70;;
51556;SDS011;38766;53.194;5.532;2023-02-21T13:37:06;15.88;;;11.68;;
51556;SDS011;38766;53.194;5.532;2023-02-21T13:42:29;18.67;;;11.80;;
51556;SDS011;38766;53.194;5.532;2023-02-21T13:45:14;19.10;;;11.48;;
51556;SDS011;38766;53.194;5.532;2023-02-21T13:55:33;18.80;;;12.75;;
51556;SDS011;38766;53.194;5.532;2023-02-21T14:08:28;19.30;;;12.65;;
51556;SDS011;38766;53.194;5.532;2023-02-21T14:10:55;23.45;;;11.02;;
51556;SDS011;38766;53.194;5.532;2023-02-21T14:18:37;16.98;;;11.45;;
51556;SDS011;38766;53.194;5.532;2023-02-21T14:21:26;17.90;;;11.25;;
51556;SDS011;38766;53.194;5.532;2023-02-21T14:29:28;18.80;;;11.18;;
51556;SDS011;38766;53.194;5.532;2023-02-21T14:37:27;13.30;;;10.75;;
51556;SDS011;38766;53.194;5.532;2023-02-21T14:48:38;15.90;;;11.40;;
51556;SDS011;38766;53.194;5.532;2023-02-21T15:05:38;20.30;;;12.60;;
51556;SDS011;38766;53.194;5.532;2023-02-21T15:10:42;22.77;;;15.05;;
51556;SDS011;38766;53.194;5.532;2023-02-21T15:13:22;21.15;;;15.18;;
51556;SDS011;38766;53.194;5.532;2023-02-21T15:15:56;20.77;;;14.32;;
51556;SDS011;38766;53.194;5.532;2023-02-21T15:18:28;21.27;;;15.25;;
51556;SDS011;38766;53.194;5.532;2023-02-21T15:23:37;26.73;;;16.48;;
51556;SDS011;38766;53.194;5.532;2023-02-21T15:31:54;25.63;;;15.90;;
51556;SDS011;38766;53.194;5.532;2023-02-21T15:34:22;28.63;;;17.92;;
51556;SDS011;38766;53.194;5.532;2023-02-21T15:37:00;30.92;;;17.58;;
51556;SDS011;38766;53.194;5.532;2023-02-21T15:39:40;26.40;;;17.38;;
51556;SDS011;38766;53.194;5.532;2023-02-21T15:42:16;24.13;;;17.17;;
51556;SDS011;38766;53.194;5.532;2023-02-21T15:44:51;26.67;;;17.52;;
51556;SDS011;38766;53.194;5.532;2023-02-21T15:47:24;23.58;;;17.05;;
51556;SDS011;38766;53.194;5.532;2023-02-21T15:52:30;28.95;;;17.52;;
51556;SDS011;38766;53.194;5.532;2023-02-21T15:57:44;30.88;;;18.55;;
51556;SDS011;38766;53.194;5.532;2023-02-21T16:00:18;32.97;;;18.35;;
51556;SDS011;38766;53.194;5.532;2023-02-21T16:06:25;30.73;;;18.67;;
51556;SDS011;38766;53.194;5.532;2023-02-21T16:08:54;28.42;;;18.50;;
51556;SDS011;38766;53.194;5.532;2023-02-21T16:11:24;27.38;;;17.95;;
51556;SDS011;38766;53.194;5.532;2023-02-21T16:13:51;30.13;;;18.42;;
51556;SDS011;38766;53.194;5.532;2023-02-21T16:16:17;27.15;;;17.42;;
51556;SDS011;38766;53.194;5.532;2023-02-21T16:18:45;29.48;;;19.00;;
51556;SDS011;38766;53.194;5.532;2023-02-21T16:21:24;29.60;;;18.33;;
51556;SDS011;38766;53.194;5.532;2023-02-21T16:23:52;28.15;;;18.50;;
51556;SDS011;38766;53.194;5.532;2023-02-21T16:26:19;26.73;;;17.05;;
51556;SDS011;38766;53.194;5.532;2023-02-21T16:28:52;29.48;;;18.05;;
51556;SDS011;38766;53.194;5.532;2023-02-21T16:31:30;28.77;;;18.45;;
51556;SDS011;38766;53.194;5.532;2023-02-21T16:33:57;32.20;;;18.65;;
51556;SDS011;38766;53.194;5.532;2023-02-21T16:36:26;30.08;;;17.88;;
51556;SDS011;38766;53.194;5.532;2023-02-21T16:38:54;25.90;;;16.85;;
51556;SDS011;38766;53.194;5.532;2023-02-21T16:41:21;26.83;;;17.90;;
51556;SDS011;38766;53.194;5.532;2023-02-21T16:43:47;23.38;;;16.98;;
51556;SDS011;38766;53.194;5.532;2023-02-21T16:46:13;30.05;;;19.52;;
51556;SDS011;38766;53.194;5.532;2023-02-21T16:48:39;29.77;;;17.85;;
51556;SDS011;38766;53.194;5.532;2023-02-21T16:51:10;29.98;;;17.42;;
51556;SDS011;38766;53.194;5.532;2023-02-21T16:53:41;30.65;;;17.08;;
51556;SDS011;38766;53.194;5.532;2023-02-21T16:56:07;31.42;;;17.38;;
51556;SDS011;38766;53.194;5.532;2023-02-21T16:58:37;27.20;;;17.20;;
51556;SDS011;38766;53.194;5.532;2023-02-21T17:01:14;28.30;;;17.83;;
51556;SDS011;38766;53.194;5.532;2023-02-21T17:03:45;23.73;;;16.73;;
51556;SDS011;38766;53.194;5.532;2023-02-21T17:06:15;25.90;;;17.35;;
51556;SDS011;38766;53.194;5.532;2023-02-21T17:08:44;29.20;;;18.77;;
51556;SDS011;38766;53.194;5.532;2023-02-21T17:11:10;28.45;;;18.15;;
51556;SDS011;38766;53.194;5.532;2023-02-21T17:13:39;29.50;;;19.95;;
51556;SDS011;38766;53.194;5.532;2023-02-21T17:16:04;33.20;;;19.08;;
51556;SDS011;38766;53.194;5.532;2023-02-21T17:18:30;32.70;;;19.98;;
51556;SDS011;38766;53.194;5.532;2023-02-21T17:20:59;35.03;;;20.98;;
51556;SDS011;38766;53.194;5.532;2023-02-21T17:23:25;46.22;;;21.58;;
51556;SDS011;38766;53.194;5.532;2023-02-21T17:25:51;34.80;;;22.15;;
51556;SDS011;38766;53.194;5.532;2023-02-21T17:28:17;37.45;;;22.23;;
51556;SDS011;38766;53.194;5.532;2023-02-21T17:30:43;31.65;;;20.02;;
51556;SDS011;38766;53.194;5.532;2023-02-21T17:33:08;42.45;;;21.33;;
51556;SDS011;38766;53.194;5.532;2023-02-21T17:35:39;31.75;;;21.17;;
51556;SDS011;38766;53.194;5.532;2023-02-21T17:38:05;33.20;;;20.02;;
51556;SDS011;38766;53.194;5.532;2023-02-21T17:40:31;31.25;;;19.42;;
51556;SDS011;38766;53.194;5.532;2023-02-21T17:42:56;30.98;;;20.02;;
51556;SDS011;38766;53.194;5.532;2023-02-21T17:45:23;33.38;;;20.48;;
51556;SDS011;38766;53.194;5.532;2023-02-21T17:47:50;29.15;;;20.10;;
51556;SDS011;38766;53.194;5.532;2023-02-21T17:50:16;35.17;;;20.60;;
51556;SDS011;38766;53.194;5.532;2023-02-21T17:52:43;36.45;;;21.63;;
51556;SDS011;38766;53.194;5.532;2023-02-21T17:55:09;41.88;;;22.15;;
51556;SDS011;38766;53.194;5.532;2023-02-21T17:57:42;37.50;;;20.48;;
51556;SDS011;38766;53.194;5.532;2023-02-21T18:00:09;43.40;;;24.00;;
51556;SDS011;38766;53.194;5.532;2023-02-21T18:02:45;37.40;;;21.23;;
51556;SDS011;38766;53.194;5.532;2023-02-21T18:05:12;37.33;;;20.98;;
51556;SDS011;38766;53.194;5.532;2023-02-21T18:07:38;34.72;;;20.73;;
51556;SDS011;38766;53.194;5.532;2023-02-21T18:10:09;39.33;;;21.55;;
51556;SDS011;38766;53.194;5.532;2023-02-21T18:12:35;35.95;;;21.05;;
51556;SDS011;38766;53.194;5.532;2023-02-21T18:15:00;36.47;;;20.45;;
51556;SDS011;38766;53.194;5.532;2023-02-21T18:17:26;34.05;;;20.13;;
51556;SDS011;38766;53.194;5.532;2023-02-21T18:19:52;34.78;;;20.20;;
51556;SDS011;38766;53.194;5.532;2023-02-21T18:22:18;32.55;;;18.00;;
51556;SDS011;38766;53.194;5.532;2023-02-21T18:24:44;32.05;;;18.67;;
51556;SDS011;38766;53.194;5.532;2023-02-21T18:27:09;35.63;;;19.88;;
51556;SDS011;38766;53.194;5.532;2023-02-21T18:29:37;33.20;;;19.15;;